sensor_id;sensor_type;location;lat;lon;timestamp;pressure;altitude;pressure_sealevel;temperature;humidity
75794;BME280;64418;47.536;19.074;2022-12-11T00:01:49;98238.53;;;3.12;98.45
75794;BME280;64418;47.536;19.074;2022-12-11T00:04:35;98234.59;;;3.14;98.30
75794;BME280;64418;47.536;19.074;2022-12-11T00:07:21;98230.50;;;3.12;98.22
75794;BME280;64418;47.536;19.074;2022-12-11T00:10:07;98225.34;;;3.10;98.18
75794;BME280;64418;47.536;19.074;2022-12-11T00:12:56;98220.44;;;3.07;98.15
75794;BME280;64418;47.536;19.074;2022-12-11T00:15:42;98221.69;;;3.05;98.09
75794;BME280;64418;47.536;19.074;2022-12-11T00:18:30;98191.62;;;3.03;97.97
75794;BME280;64418;47.536;19.074;2022-12-11T00:21:16;98209.13;;;2.99;97.88
75794;BME280;64418;47.536;19.074;2022-12-11T00:24:02;98209.37;;;2.97;97.86
75794;BME280;64418;47.536;19.074;2022-12-11T00:26:48;98207.94;;;2.95;97.83
75794;BME280;64418;47.536;19.074;2022-12-11T00:29:34;98215.34;;;2.92;97.75
75794;BME280;64418;47.536;19.074;2022-12-11T00:32:20;98202.59;;;2.88;97.88
75794;BME280;64418;47.536;19.074;2022-12-11T00:35:08;98173.47;;;2.67;97.75
75794;BME280;64418;47.536;19.074;2022-12-11T00:37:56;98217.22;;;2.85;97.82
75794;BME280;64418;47.536;19.074;2022-12-11T00:40:43;98210.66;;;2.81;97.73
75794;BME280;64418;47.536;19.074;2022-12-11T00:43:29;98210.66;;;2.81;97.72
75794;BME280;64418;47.536;19.074;2022-12-11T00:46:15;98203.66;;;2.80;97.65
75794;BME280;64418;47.536;19.074;2022-12-11T00:49:01;98202.44;;;2.76;97.68
75794;BME280;64418;47.536;19.074;2022-12-11T00:51:48;98207.19;;;2.74;97.48
75794;BME280;64418;47.536;19.074;2022-12-11T00:54:34;98198.31;;;2.74;97.58
75794;BME280;64418;47.536;19.074;2022-12-11T00:57:20;98208.22;;;2.67;97.18
75794;BME280;64418;47.536;19.074;2022-12-11T01:00:07;98208.22;;;2.67;97.32
75794;BME280;64418;47.536;19.074;2022-12-11T01:02:52;98202.47;;;2.63;97.49
75794;BME280;64418;47.536;19.074;2022-12-11T01:05:38;98188.47;;;2.61;97.34
75794;BME280;64418;47.536;19.074;2022-12-11T01:08:26;98212.75;;;2.60;97.16
75794;BME280;64418;47.536;19.074;2022-12-11T01:11:13;98189.94;;;2.57;96.96
75794;BME280;64418;47.536;19.074;2022-12-11T01:14:00;98200.03;;;2.55;97.07
75794;BME280;64418;47.536;19.074;2022-12-11T01:16:46;98204.72;;;2.53;96.93
75794;BME280;64418;47.536;19.074;2022-12-11T01:19:31;98194.69;;;2.49;96.64
75794;BME280;64418;47.536;19.074;2022-12-11T01:22:17;98202.09;;;2.47;96.71
75794;BME280;64418;47.536;19.074;2022-12-11T01:25:05;98221.00;;;2.45;96.44
75794;BME280;64418;47.536;19.074;2022-12-11T01:27:52;98216.69;;;2.44;96.82
75794;BME280;64418;47.536;19.074;2022-12-11T01:30:40;98203.75;;;2.41;96.86
75794;BME280;64418;47.536;19.074;2022-12-11T01:33:26;98211.38;;;2.37;96.72
75794;BME280;64418;47.536;19.074;2022-12-11T01:36:14;98221.41;;;2.35;96.43
75794;BME280;64418;47.536;19.074;2022-12-11T01:39:00;98221.66;;;2.34;96.63
75794;BME280;64418;47.536;19.074;2022-12-11T01:41:48;98221.00;;;2.32;95.95
75794;BME280;64418;47.536;19.074;2022-12-11T01:45:13;98221.44;;;2.29;96.15
75794;BME280;64418;47.536;19.074;2022-12-11T01:48:04;98210.34;;;2.25;95.94
75794;BME280;64418;47.536;19.074;2022-12-11T01:50:53;98199.03;;;2.23;96.18
75794;BME280;64418;47.536;19.074;2022-12-11T01:53:42;98221.03;;;2.19;95.86
75794;BME280;64418;47.536;19.074;2022-12-11T01:56:31;98225.97;;;2.15;96.03
75794;BME280;64418;47.536;19.074;2022-12-11T01:59:23;98238.50;;;2.15;96.00
75794;BME280;64418;47.536;19.074;2022-12-11T02:02:16;98243.22;;;2.13;96.08
75794;BME280;64418;47.536;19.074;2022-12-11T02:05:05;98243.03;;;2.08;95.77
75794;BME280;64418;47.536;19.074;2022-12-11T02:07:54;98251.41;;;2.05;96.05
75794;BME280;64418;47.536;19.074;2022-12-11T02:10:47;98248.16;;;2.03;96.24
75794;BME280;64418;47.536;19.074;2022-12-11T02:13:41;98236.22;;;1.99;96.00
75794;BME280;64418;47.536;19.074;2022-12-11T02:16:40;98233.34;;;1.93;95.81
75794;BME280;64418;47.536;19.074;2022-12-11T02:19:43;98229.66;;;1.88;96.09
75794;BME280;64418;47.536;19.074;2022-12-11T02:22:47;98228.41;;;1.84;96.06
75794;BME280;64418;47.536;19.074;2022-12-11T02:25:47;98245.03;;;1.79;95.97
75794;BME280;64418;47.536;19.074;2022-12-11T02:28:42;98236.59;;;1.76;96.15
75794;BME280;64418;47.536;19.074;2022-12-11T02:31:34;98250.56;;;1.71;95.92
75794;BME280;64418;47.536;19.074;2022-12-11T02:34:26;98237.62;;;1.68;96.03
75794;BME280;64418;47.536;19.074;2022-12-11T02:37:18;98251.16;;;1.60;96.13
75794;BME280;64418;47.536;19.074;2022-12-11T02:40:10;98246.81;;;1.59;96.17
75794;BME280;64418;47.536;19.074;2022-12-11T02:43:00;98233.91;;;1.56;96.35
75794;BME280;64418;47.536;19.074;2022-12-11T02:45:49;98229.97;;;1.52;96.32
75794;BME280;64418;47.536;19.074;2022-12-11T02:48:36;98239.41;;;1.48;96.26
75794;BME280;64418;47.536;19.074;2022-12-11T02:51:25;98233.25;;;1.41;96.20
75794;BME280;64418;47.536;19.074;2022-12-11T02:54:16;98231.22;;;1.43;96.11
75794;BME280;64418;47.536;19.074;2022-12-11T02:57:06;98223.81;;;1.38;96.30
75794;BME280;64418;47.536;19.074;2022-12-11T02:59:52;98225.03;;;1.36;96.37
75794;BME280;64418;47.536;19.074;2022-12-11T03:02:40;98225.03;;;1.36;96.36
75794;BME280;64418;47.536;19.074;2022-12-11T03:05:26;98221.12;;;1.32;96.18
75794;BME280;64418;47.536;19.074;2022-12-11T03:08:12;98222.97;;;1.31;96.20
75794;BME280;64418;47.536;19.074;2022-12-11T03:10:58;98224.81;;;1.31;96.21
75794;BME280;64418;47.536;19.074;2022-12-11T03:13:44;98213.50;;;1.29;96.21
75794;BME280;64418;47.536;19.074;2022-12-11T03:16:33;98211.06;;;1.27;96.23
75794;BME280;64418;47.536;19.074;2022-12-11T03:19:25;98206.91;;;1.25;96.36
75794;BME280;64418;47.536;19.074;2022-12-11T03:22:19;98211.84;;;1.21;96.25
75794;BME280;64418;47.536;19.074;2022-12-11T03:25:11;98212.66;;;1.22;96.51
75794;BME280;64418;47.536;19.074;2022-12-11T03:27:58;98220.47;;;1.23;96.42
75794;BME280;64418;47.536;19.074;2022-12-11T03:30:50;98219.84;;;1.21;96.38
75794;BME280;64418;47.536;19.074;2022-12-11T03:33:40;98211.66;;;1.23;96.49
75794;BME280;64418;47.536;19.074;2022-12-11T03:36:32;98206.50;;;1.21;96.26
75794;BME280;64418;47.536;19.074;2022-12-11T03:39:23;98218.41;;;1.19;96.28
75794;BME280;64418;47.536;19.074;2022-12-11T03:42:13;98209.37;;;1.20;96.24
75794;BME280;64418;47.536;19.074;2022-12-11T03:45:03;98198.31;;;1.16;96.11
75794;BME280;64418;47.536;19.074;2022-12-11T03:47:49;98209.16;;;1.15;96.08
75794;BME280;64418;47.536;19.074;2022-12-11T03:50:37;98217.16;;;1.15;96.16
75794;BME280;64418;47.536;19.074;2022-12-11T03:53:26;98223.31;;;1.15;96.02
75794;BME280;64418;47.536;19.074;2022-12-11T03:56:13;98215.50;;;1.14;95.89
75794;BME280;64418;47.536;19.074;2022-12-11T03:59:00;98208.91;;;1.10;95.87
75794;BME280;64418;47.536;19.074;2022-12-11T04:01:46;98205.25;;;1.11;95.85
75794;BME280;64418;47.536;19.074;2022-12-11T04:04:32;98216.31;;;1.08;95.93
75794;BME280;64418;47.536;19.074;2022-12-11T04:07:18;98213.62;;;1.08;95.94
75794;BME280;64418;47.536;19.074;2022-12-11T04:10:06;98213.41;;;1.03;95.60
75794;BME280;64418;47.536;19.074;2022-12-11T04:12:52;98216.72;;;1.05;95.62
75794;BME280;64418;47.536;19.074;2022-12-11T04:15:39;98220.38;;;1.04;95.43
75794;BME280;64418;47.536;19.074;2022-12-11T04:18:25;98218.97;;;1.01;95.66
75794;BME280;64418;47.536;19.074;2022-12-11T04:21:11;98217.13;;;1.02;95.73
75794;BME280;64418;47.536;19.074;2022-12-11T04:23:57;98218.56;;;1.04;95.23
75794;BME280;64418;47.536;19.074;2022-12-11T04:26:45;98211.38;;;1.05;95.13
75794;BME280;64418;47.536;19.074;2022-12-11T04:29:31;98221.22;;;1.04;95.02
75794;BME280;64418;47.536;19.074;2022-12-11T04:32:17;98228.19;;;1.05;94.56
75794;BME280;64418;47.536;19.074;2022-12-11T04:35:06;98223.88;;;1.04;94.74
75794;BME280;64418;47.536;19.074;2022-12-11T04:37:52;98234.72;;;1.03;94.95
75794;BME280;64418;47.536;19.074;2022-12-11T04:40:37;98226.94;;;1.01;94.74
75794;BME280;64418;47.536;19.074;2022-12-11T04:43:25;98243.97;;;1.00;95.05
75794;BME280;64418;47.536;19.074;2022-12-11T04:46:13;98237.41;;;1.03;94.75
75794;BME280;64418;47.536;19.074;2022-12-11T04:48:59;98245.41;;;1.03;94.90
75794;BME280;64418;47.536;19.074;2022-12-11T04:51:45;98259.78;;;1.02;94.85
75794;BME280;64418;47.536;19.074;2022-12-11T04:54:32;98267.75;;;1.02;94.87
75794;BME280;64418;47.536;19.074;2022-12-11T04:57:17;98264.88;;;1.03;94.60
75794;BME280;64418;47.536;19.074;2022-12-11T05:00:07;98263.03;;;1.04;94.67
75794;BME280;64418;47.536;19.074;2022-12-11T05:02:54;98277.38;;;1.03;94.82
75794;BME280;64418;47.536;19.074;2022-12-11T05:05:40;98286.84;;;1.05;94.96
75794;BME280;64418;47.536;19.074;2022-12-11T05:08:25;98290.34;;;1.06;94.85
75794;BME280;64418;47.536;19.074;2022-12-11T05:11:13;98288.28;;;1.08;94.87
75794;BME280;64418;47.536;19.074;2022-12-11T05:13:59;98295.47;;;1.07;94.59
75794;BME280;64418;47.536;19.074;2022-12-11T05:16:46;98290.97;;;1.08;94.88
75794;BME280;64418;47.536;19.074;2022-12-11T05:19:32;98301.63;;;1.08;94.54
75794;BME280;64418;47.536;19.074;2022-12-11T05:22:18;98309.22;;;1.11;94.58
75794;BME280;64418;47.536;19.074;2022-12-11T05:25:05;98306.56;;;1.11;94.31
75794;BME280;64418;47.536;19.074;2022-12-11T05:27:51;98305.53;;;1.12;94.55
75794;BME280;64418;47.536;19.074;2022-12-11T05:30:37;98309.03;;;1.12;94.29
75794;BME280;64418;47.536;19.074;2022-12-11T05:33:24;98306.16;;;1.14;94.19
75794;BME280;64418;47.536;19.074;2022-12-11T05:36:15;98309.87;;;1.13;94.30
75794;BME280;64418;47.536;19.074;2022-12-11T05:39:03;98302.06;;;1.11;94.29
75794;BME280;64418;47.536;19.074;2022-12-11T05:41:49;98304.91;;;1.10;94.48
75794;BME280;64418;47.536;19.074;2022-12-11T05:44:35;98303.88;;;1.11;94.21
75794;BME280;64418;47.536;19.074;2022-12-11T05:47:21;98315.56;;;1.10;94.08
75794;BME280;64418;47.536;19.074;2022-12-11T05:50:08;98301.22;;;1.11;94.06
75794;BME280;64418;47.536;19.074;2022-12-11T05:52:54;98302.88;;;1.12;93.72
75794;BME280;64418;47.536;19.074;2022-12-11T05:55:41;98295.88;;;1.11;93.86
75794;BME280;64418;47.536;19.074;2022-12-11T05:58:27;98285.63;;;1.08;93.81
75794;BME280;64418;47.536;19.074;2022-12-11T06:01:14;98294.63;;;1.07;94.01
75794;BME280;64418;47.536;19.074;2022-12-11T06:04:01;98300.78;;;1.07;93.90
75794;BME280;64418;47.536;19.074;2022-12-11T06:06:49;98314.34;;;1.06;93.79
75794;BME280;64418;47.536;19.074;2022-12-11T06:09:35;98319.66;;;1.06;93.88
75794;BME280;64418;47.536;19.074;2022-12-11T06:12:21;98315.97;;;1.07;93.55
75794;BME280;64418;47.536;19.074;2022-12-11T06:15:07;98329.50;;;1.05;93.72
75794;BME280;64418;47.536;19.074;2022-12-11T06:17:53;98329.50;;;1.05;93.75
75794;BME280;64418;47.536;19.074;2022-12-11T06:20:39;98344.69;;;1.05;93.89
75794;BME280;64418;47.536;19.074;2022-12-11T06:23:26;98334.00;;;1.05;94.15
75794;BME280;64418;47.536;19.074;2022-12-11T06:26:13;98351.03;;;1.04;93.78
75794;BME280;64418;47.536;19.074;2022-12-11T06:28:59;98361.69;;;1.04;94.01
75794;BME280;64418;47.536;19.074;2022-12-11T06:31:46;98356.16;;;1.05;93.84
75794;BME280;64418;47.536;19.074;2022-12-11T06:34:33;98357.78;;;1.06;93.68
75794;BME280;64418;47.536;19.074;2022-12-11T06:37:18;98362.75;;;1.09;93.40
75794;BME280;64418;47.536;19.074;2022-12-11T06:40:07;98364.38;;;1.10;93.19
75794;BME280;64418;47.536;19.074;2022-12-11T06:42:54;98364.38;;;1.10;93.10
75794;BME280;64418;47.536;19.074;2022-12-11T06:45:40;98371.56;;;1.10;92.91
75794;BME280;64418;47.536;19.074;2022-12-11T06:48:27;98376.87;;;1.10;92.99
75794;BME280;64418;47.536;19.074;2022-12-11T06:51:14;98376.09;;;1.09;92.98
75794;BME280;64418;47.536;19.074;2022-12-11T06:54:00;98401.28;;;1.07;93.29
75794;BME280;64418;47.536;19.074;2022-12-11T06:56:48;98399.44;;;1.07;92.91
75794;BME280;64418;47.536;19.074;2022-12-11T06:59:33;98402.94;;;1.08;92.67
75794;BME280;64418;47.536;19.074;2022-12-11T07:02:19;98409.09;;;1.08;92.53
75794;BME280;64418;47.536;19.074;2022-12-11T07:05:06;98416.09;;;1.09;92.42
75794;BME280;64418;47.536;19.074;2022-12-11T07:07:52;98418.53;;;1.11;92.26
75794;BME280;64418;47.536;19.074;2022-12-11T07:10:38;98413.84;;;1.13;91.93
75794;BME280;64418;47.536;19.074;2022-12-11T07:13:26;98435.78;;;1.15;92.00
75794;BME280;64418;47.536;19.074;2022-12-11T07:16:14;98435.41;;;1.18;91.92
75794;BME280;64418;47.536;19.074;2022-12-11T07:19:00;98446.31;;;1.23;91.74
75794;BME280;64418;47.536;19.074;2022-12-11T07:21:46;98444.91;;;1.27;91.63
75794;BME280;64418;47.536;19.074;2022-12-11T07:24:32;98446.19;;;1.31;91.43
75794;BME280;64418;47.536;19.074;2022-12-11T07:27:18;98443.75;;;1.36;91.11
75794;BME280;64418;47.536;19.074;2022-12-11T07:30:09;98430.63;;;1.41;90.61
75794;BME280;64418;47.536;19.074;2022-12-11T07:32:55;98466.00;;;1.50;90.45
75794;BME280;64418;47.536;19.074;2022-12-11T07:35:42;98459.44;;;1.52;90.26
75794;BME280;64418;47.536;19.074;2022-12-11T07:38:29;98473.44;;;1.61;89.71
75794;BME280;64418;47.536;19.074;2022-12-11T07:41:15;98473.09;;;1.70;89.43
75794;BME280;64418;47.536;19.074;2022-12-11T07:44:02;98476.84;;;1.82;89.14
75794;BME280;64418;47.536;19.074;2022-12-11T07:46:50;98485.13;;;1.94;88.35
75794;BME280;64418;47.536;19.074;2022-12-11T07:49:34;98490.50;;;2.01;87.71
75794;BME280;64418;47.536;19.074;2022-12-11T07:52:19;98498.97;;;2.11;87.77
75794;BME280;64418;47.536;19.074;2022-12-11T07:55:04;98491.00;;;2.17;87.24
75794;BME280;64418;47.536;19.074;2022-12-11T07:57:48;98487.66;;;2.09;86.87
75794;BME280;64418;47.536;19.074;2022-12-11T08:00:33;98507.78;;;2.05;87.17
75794;BME280;64418;47.536;19.074;2022-12-11T08:03:19;98513.25;;;1.97;87.09
75794;BME280;64418;47.536;19.074;2022-12-11T08:06:04;98524.50;;;1.85;87.40
75794;BME280;64418;47.536;19.074;2022-12-11T08:08:49;98528.41;;;1.83;87.78
75794;BME280;64418;47.536;19.074;2022-12-11T08:11:33;98531.53;;;1.93;88.13
75794;BME280;64418;47.536;19.074;2022-12-11T08:14:19;98536.00;;;1.86;87.53
75794;BME280;64418;47.536;19.074;2022-12-11T08:17:03;98531.09;;;1.89;87.86
75794;BME280;64418;47.536;19.074;2022-12-11T08:19:49;98534.16;;;1.86;87.55
75794;BME280;64418;47.536;19.074;2022-12-11T08:22:33;98553.87;;;1.85;87.30
75794;BME280;64418;47.536;19.074;2022-12-11T08:25:18;98557.34;;;1.79;86.87
75794;BME280;64418;47.536;19.074;2022-12-11T08:28:02;98555.69;;;1.78;87.42
75794;BME280;64418;47.536;19.074;2022-12-11T08:30:52;98535.97;;;1.79;87.28
75794;BME280;64418;47.536;19.074;2022-12-11T08:33:37;98546.47;;;1.81;86.63
75794;BME280;64418;47.536;19.074;2022-12-11T08:36:24;98564.19;;;1.88;87.33
75794;BME280;64418;47.536;19.074;2022-12-11T08:39:09;98556.16;;;1.88;86.44
75794;BME280;64418;47.536;19.074;2022-12-11T08:41:55;98551.59;;;1.82;85.89
75794;BME280;64418;47.536;19.074;2022-12-11T08:44:39;98566.59;;;1.83;86.19
75794;BME280;64418;47.536;19.074;2022-12-11T08:47:23;98570.28;;;1.82;86.23
75794;BME280;64418;47.536;19.074;2022-12-11T08:50:10;98578.06;;;1.77;85.90
75794;BME280;64418;47.536;19.074;2022-12-11T08:52:56;98564.72;;;1.77;85.85
75794;BME280;64418;47.536;19.074;2022-12-11T08:55:41;98579.91;;;1.77;85.53
75794;BME280;64418;47.536;19.074;2022-12-11T08:58:25;98582.63;;;1.83;85.36
75794;BME280;64418;47.536;19.074;2022-12-11T09:01:12;98603.16;;;1.83;84.88
75794;BME280;64418;47.536;19.074;2022-12-11T09:03:57;98585.25;;;1.77;85.03
75794;BME280;64418;47.536;19.074;2022-12-11T09:06:41;98614.41;;;1.78;84.90
75794;BME280;64418;47.536;19.074;2022-12-11T09:09:27;98605.38;;;1.79;84.89
75794;BME280;64418;47.536;19.074;2022-12-11T09:12:11;98609.06;;;1.78;84.82
75794;BME280;64418;47.536;19.074;2022-12-11T09:14:55;98603.72;;;1.78;84.47
75794;BME280;64418;47.536;19.074;2022-12-11T09:17:39;98603.09;;;1.76;84.62
75794;BME280;64418;47.536;19.074;2022-12-11T09:20:23;98592.38;;;1.70;84.16
75794;BME280;64418;47.536;19.074;2022-12-11T09:23:07;98615.03;;;1.80;84.70
75794;BME280;64418;47.536;19.074;2022-12-11T09:25:53;98607.91;;;1.87;84.46
75794;BME280;64418;47.536;19.074;2022-12-11T09:28:38;98602.56;;;1.87;84.09
75794;BME280;64418;47.536;19.074;2022-12-11T09:31:28;98599.50;;;1.90;84.14
75794;BME280;64418;47.536;19.074;2022-12-11T09:34:13;98599.91;;;1.87;83.90
75794;BME280;64418;47.536;19.074;2022-12-11T09:36:57;98611.59;;;1.86;83.67
75794;BME280;64418;47.536;19.074;2022-12-11T09:39:41;98610.16;;;1.84;83.52
75794;BME280;64418;47.536;19.074;2022-12-11T09:42:30;98600.91;;;1.86;83.93
75794;BME280;64418;47.536;19.074;2022-12-11T09:45:20;98589.78;;;1.83;83.56
75794;BME280;64418;47.536;19.074;2022-12-11T09:48:04;98601.88;;;1.79;83.10
75794;BME280;64418;47.536;19.074;2022-12-11T09:50:50;98613.37;;;1.79;83.38
75794;BME280;64418;47.536;19.074;2022-12-11T09:53:36;98592.88;;;1.80;83.13
75794;BME280;64418;47.536;19.074;2022-12-11T09:56:24;98606.41;;;1.78;82.83
75794;BME280;64418;47.536;19.074;2022-12-11T09:59:20;98610.31;;;1.82;82.65
75794;BME280;64418;47.536;19.074;2022-12-11T10:02:17;98604.38;;;1.80;82.48
75794;BME280;64418;47.536;19.074;2022-12-11T10:05:12;98595.56;;;1.86;82.54
75794;BME280;64418;47.536;19.074;2022-12-11T10:08:07;98591.50;;;1.90;82.34
75794;BME280;64418;47.536;19.074;2022-12-11T10:10:58;98594.41;;;1.96;81.78
75794;BME280;64418;47.536;19.074;2022-12-11T10:13:51;98583.34;;;1.99;81.46
75794;BME280;64418;47.536;19.074;2022-12-11T10:16:44;98573.28;;;2.01;81.39
75794;BME280;64418;47.536;19.074;2022-12-11T10:19:30;98578.59;;;2.01;80.76
75794;BME280;64418;47.536;19.074;2022-12-11T10:22:19;98595.28;;;2.03;81.16
75794;BME280;64418;47.536;19.074;2022-12-11T10:25:07;98592.56;;;1.96;80.97
75794;BME280;64418;47.536;19.074;2022-12-11T10:27:56;98608.34;;;1.91;81.38
75794;BME280;64418;47.536;19.074;2022-12-11T10:30:47;98611.25;;;1.96;81.58
75794;BME280;64418;47.536;19.074;2022-12-11T10:33:36;98613.72;;;1.98;81.29
75794;BME280;64418;47.536;19.074;2022-12-11T10:36:27;98630.56;;;1.98;81.51
75794;BME280;64418;47.536;19.074;2022-12-11T10:39:13;98626.06;;;1.99;81.32
75794;BME280;64418;47.536;19.074;2022-12-11T10:41:58;98617.03;;;2.00;81.36
75794;BME280;64418;47.536;19.074;2022-12-11T10:44:54;98608.38;;;1.98;81.39
75794;BME280;64418;47.536;19.074;2022-12-11T10:47:39;98613.50;;;1.92;81.22
75794;BME280;64418;47.536;19.074;2022-12-11T10:50:25;98626.84;;;1.92;81.59
75794;BME280;64418;47.536;19.074;2022-12-11T10:53:19;98636.69;;;1.92;81.71
75794;BME280;64418;47.536;19.074;2022-12-11T10:56:04;98650.41;;;1.89;81.88
75794;BME280;64418;47.536;19.074;2022-12-11T10:58:49;98656.72;;;1.81;82.11
75794;BME280;64418;47.536;19.074;2022-12-11T11:01:34;98647.06;;;1.80;81.83
75794;BME280;64418;47.536;19.074;2022-12-11T11:04:22;98638.03;;;1.81;82.17
75794;BME280;64418;47.536;19.074;2022-12-11T11:07:13;98643.63;;;1.86;82.44
75794;BME280;64418;47.536;19.074;2022-12-11T11:10:14;98630.84;;;1.82;81.77
75794;BME280;64418;47.536;19.074;2022-12-11T11:13:00;98653.88;;;1.83;81.94
75794;BME280;64418;47.536;19.074;2022-12-11T11:15:45;98644.03;;;1.83;81.23
75794;BME280;64418;47.536;19.074;2022-12-11T11:18:30;98650.63;;;1.87;81.35
75794;BME280;64418;47.536;19.074;2022-12-11T11:21:15;98656.59;;;1.89;81.46
75794;BME280;64418;47.536;19.074;2022-12-11T11:24:02;98646.56;;;1.91;81.06
75794;BME280;64418;47.536;19.074;2022-12-11T11:26:47;98626.44;;;1.96;81.25
75794;BME280;64418;47.536;19.074;2022-12-11T11:29:33;98632.41;;;1.98;80.91
75794;BME280;64418;47.536;19.074;2022-12-11T11:32:21;98628.16;;;2.03;80.86
75794;BME280;64418;47.536;19.074;2022-12-11T11:35:18;98609.25;;;2.05;80.00
75794;BME280;64418;47.536;19.074;2022-12-11T11:38:12;98645.06;;;2.17;80.03
75794;BME280;64418;47.536;19.074;2022-12-11T11:41:05;98631.09;;;2.15;79.80
75794;BME280;64418;47.536;19.074;2022-12-11T11:43:56;98660.28;;;2.16;79.97
75794;BME280;64418;47.536;19.074;2022-12-11T11:46:45;98650.81;;;2.14;79.90
75794;BME280;64418;47.536;19.074;2022-12-11T11:49:41;98664.16;;;2.14;79.91
75794;BME280;64418;47.536;19.074;2022-12-11T11:52:31;98668.06;;;2.11;79.72
75794;BME280;64418;47.536;19.074;2022-12-11T11:55:27;98672.19;;;2.14;80.06
75794;BME280;64418;47.536;19.074;2022-12-11T11:58:22;98670.53;;;2.13;79.68
75794;BME280;64418;47.536;19.074;2022-12-11T12:01:13;98675.87;;;2.13;79.56
75794;BME280;64418;47.536;19.074;2022-12-11T12:04:00;98674.22;;;2.12;79.42
75794;BME280;64418;47.536;19.074;2022-12-11T12:07:13;98674.22;;;2.12;79.62
75794;BME280;64418;47.536;19.074;2022-12-11T12:10:13;98697.63;;;2.10;79.42
75794;BME280;64418;47.536;19.074;2022-12-11T12:13:04;98678.06;;;2.03;79.25
75794;BME280;64418;47.536;19.074;2022-12-11T12:15:55;98697.19;;;2.06;79.12
75794;BME280;64418;47.536;19.074;2022-12-11T12:18:46;98703.38;;;2.07;79.54
75794;BME280;64418;47.536;19.074;2022-12-11T12:21:36;98703.38;;;2.07;79.26
75794;BME280;64418;47.536;19.074;2022-12-11T12:24:31;98707.47;;;2.09;79.52
75794;BME280;64418;47.536;19.074;2022-12-11T12:27:19;98706.25;;;2.12;79.70
75794;BME280;64418;47.536;19.074;2022-12-11T12:30:10;98716.94;;;2.12;79.57
75794;BME280;64418;47.536;19.074;2022-12-11T12:33:10;98717.16;;;2.10;79.70
75794;BME280;64418;47.536;19.074;2022-12-11T12:36:05;98698.47;;;2.10;79.30
75794;BME280;64418;47.536;19.074;2022-12-11T12:38:59;98715.72;;;2.08;78.75
75794;BME280;64418;47.536;19.074;2022-12-11T12:41:49;98696.38;;;2.06;79.04
75794;BME280;64418;47.536;19.074;2022-12-11T12:44:44;98704.56;;;2.04;79.15
75794;BME280;64418;47.536;19.074;2022-12-11T12:47:34;98709.72;;;2.06;79.11
75794;BME280;64418;47.536;19.074;2022-12-11T12:50:23;98700.44;;;2.02;79.12
75794;BME280;64418;47.536;19.074;2022-12-11T12:53:09;98715.44;;;2.03;78.94
75794;BME280;64418;47.536;19.074;2022-12-11T12:56:00;98721.78;;;2.02;79.25
75794;BME280;64418;47.536;19.074;2022-12-11T12:58:47;98727.91;;;1.96;79.01
75794;BME280;64418;47.536;19.074;2022-12-11T13:01:33;98739.88;;;2.00;79.21
75794;BME280;64418;47.536;19.074;2022-12-11T13:04:36;98750.37;;;2.29;84.53
75794;BME280;64418;47.536;19.074;2022-12-11T13:07:18;98756.00;;;2.13;79.33
75794;BME280;64418;47.536;19.074;2022-12-11T13:09:55;98762.56;;;2.10;79.70
75794;BME280;64418;47.536;19.074;2022-12-11T13:12:31;98767.25;;;2.08;79.58
75794;BME280;64418;47.536;19.074;2022-12-11T13:14:58;98771.12;;;2.06;79.26
75794;BME280;64418;47.536;19.074;2022-12-11T13:17:35;98765.78;;;2.06;78.99
75794;BME280;64418;47.536;19.074;2022-12-11T13:20:15;98772.16;;;2.05;79.39
75794;BME280;64418;47.536;19.074;2022-12-11T13:22:53;98774.81;;;2.05;78.85
75794;BME280;64418;47.536;19.074;2022-12-11T13:25:51;98779.31;;;2.04;79.07
75794;BME280;64418;47.536;19.074;2022-12-11T13:28:46;98768.84;;;2.03;78.80
75794;BME280;64418;47.536;19.074;2022-12-11T13:31:33;98777.69;;;2.03;78.63
75794;BME280;64418;47.536;19.074;2022-12-11T13:34:21;98773.37;;;2.02;78.94
75794;BME280;64418;47.536;19.074;2022-12-11T13:37:26;98774.59;;;2.00;78.39
75794;BME280;64418;47.536;19.074;2022-12-11T13:40:18;98796.97;;;1.99;78.58
75794;BME280;64418;47.536;19.074;2022-12-11T13:43:05;98787.50;;;1.96;78.89
75794;BME280;64418;47.536;19.074;2022-12-11T13:45:54;98801.84;;;1.95;79.26
75794;BME280;64418;47.536;19.074;2022-12-11T13:48:44;98798.53;;;1.93;79.36
75794;BME280;64418;47.536;19.074;2022-12-11T13:51:31;98807.13;;;1.88;79.20
75794;BME280;64418;47.536;19.074;2022-12-11T13:54:17;98800.12;;;1.87;79.41
75794;BME280;64418;47.536;19.074;2022-12-11T13:57:14;98800.53;;;1.84;78.97
75794;BME280;64418;47.536;19.074;2022-12-11T13:59:59;98790.19;;;1.81;79.13
75794;BME280;64418;47.536;19.074;2022-12-11T14:02:44;98795.53;;;1.81;78.97
75794;BME280;64418;47.536;19.074;2022-12-11T14:05:28;98806.41;;;1.80;78.88
75794;BME280;64418;47.536;19.074;2022-12-11T14:08:21;98806.59;;;1.78;78.55
75794;BME280;64418;47.536;19.074;2022-12-11T14:11:06;98813.97;;;1.76;78.89
75794;BME280;64418;47.536;19.074;2022-12-11T14:13:53;98821.72;;;1.71;78.73
75794;BME280;64418;47.536;19.074;2022-12-11T14:16:38;98836.06;;;1.70;79.03
75794;BME280;64418;47.536;19.074;2022-12-11T14:19:22;98832.78;;;1.68;79.11
75794;BME280;64418;47.536;19.074;2022-12-11T14:22:17;98834.00;;;1.66;78.89
75794;BME280;64418;47.536;19.074;2022-12-11T14:25:17;98844.00;;;1.64;79.28
75794;BME280;64418;47.536;19.074;2022-12-11T14:28:03;98848.91;;;1.60;79.17
75794;BME280;64418;47.536;19.074;2022-12-11T14:30:51;98855.22;;;1.59;79.37
75794;BME280;64418;47.536;19.074;2022-12-11T14:33:38;98859.28;;;1.55;78.76
75794;BME280;64418;47.536;19.074;2022-12-11T14:36:24;98863.00;;;1.54;78.78
75794;BME280;64418;47.536;19.074;2022-12-11T14:39:15;98872.37;;;1.50;78.39
75794;BME280;64418;47.536;19.074;2022-12-11T14:42:04;98870.72;;;1.49;78.49
75794;BME280;64418;47.536;19.074;2022-12-11T14:44:55;98887.09;;;1.46;78.98
75794;BME280;64418;47.536;19.074;2022-12-11T14:47:43;98881.56;;;1.62;80.96
75794;BME280;64418;47.536;19.074;2022-12-11T14:50:33;98884.88;;;1.64;81.37